createdAt,value
2022-09-04T00:01:54.196Z,86.51
2022-09-04T00:04:26.635Z,87.51
2022-09-04T00:07:21.804Z,87.05
2022-09-04T00:10:12.441Z,86.77
2022-09-04T00:12:49.205Z,86.58
2022-09-04T00:15:26.716Z,86.72
2022-09-04T00:18:00.699Z,87.06
2022-09-04T00:20:41.301Z,87.42
2022-09-04T00:23:49.817Z,87.47
2022-09-04T00:26:42.903Z,87.75
2022-09-04T00:29:24.900Z,87.91
2022-09-04T00:32:02.144Z,87.59
2022-09-04T00:34:59.979Z,87.85
2022-09-04T00:37:31.786Z,88.60
2022-09-04T00:40:06.442Z,87.72
2022-09-04T00:42:54.911Z,87.81
2022-09-04T00:45:46.578Z,88.01
2022-09-04T00:48:30.731Z,88.52
2022-09-04T00:51:21.720Z,88.20
2022-09-04T00:54:03.328Z,88.32
2022-09-04T00:56:45.873Z,88.28
2022-09-04T00:59:32.771Z,87.96
2022-09-04T01:02:08.768Z,88.21
2022-09-04T01:04:40.517Z,87.76
2022-09-04T01:07:33.740Z,88.12
2022-09-04T01:10:26.572Z,88.85
2022-09-04T01:13:25.731Z,88.76
2022-09-04T01:16:00.412Z,88.19
2022-09-04T01:18:35.126Z,88.24
2022-09-04T01:21:14.912Z,88.81
2022-09-04T01:23:56.592Z,88.69
2022-09-04T01:26:33.085Z,88.52
2022-09-04T01:29:18.308Z,88.77
2022-09-04T01:31:47.715Z,88.81
2022-09-04T01:34:35.322Z,88.50
2022-09-04T01:37:29.640Z,89.29
2022-09-04T01:40:21.739Z,88.21
2022-09-04T01:42:52.887Z,88.71
2022-09-04T01:45:30.198Z,89.33
2022-09-04T01:48:02.909Z,88.78
2022-09-04T01:50:32.896Z,88.78
2022-09-04T01:53:15.204Z,89.00
2022-09-04T01:55:47.694Z,88.81
2022-09-04T01:58:27.636Z,88.29
2022-09-04T02:01:08.694Z,88.90
2022-09-04T02:03:46.142Z,89.59
2022-09-04T02:06:31.083Z,89.68
2022-09-04T02:09:11.103Z,89.41
2022-09-04T02:11:40.290Z,89.57
2022-09-04T02:14:15.094Z,89.05
2022-09-04T02:16:57.187Z,89.44
2022-09-04T02:19:35.754Z,89.30
2022-09-04T02:22:44.549Z,89.71
2022-09-04T02:25:28.543Z,89.09
2022-09-04T02:28:23.336Z,88.85
2022-09-04T02:30:54.586Z,89.33
2022-09-04T02:33:35.480Z,89.79
2022-09-04T02:36:12.267Z,90.71
2022-09-04T02:38:47.942Z,89.97
2022-09-04T02:41:37.221Z,90.09
2022-09-04T02:44:25.603Z,89.34
2022-09-04T02:47:13.959Z,89.07
2022-09-04T02:50:07.734Z,88.97
2022-09-04T02:52:40.048Z,88.78
2022-09-04T02:55:25.273Z,88.98
2022-09-04T02:58:08.115Z,88.23
2022-09-04T03:00:46.423Z,88.01
2022-09-04T03:03:22.156Z,87.60
2022-09-04T03:06:18.372Z,87.13
2022-09-04T03:08:53.419Z,86.61
2022-09-04T03:11:31.980Z,87.04
2022-09-04T03:14:15.909Z,86.92
2022-09-04T03:16:42.179Z,87.33
2022-09-04T03:19:21.016Z,87.47
2022-09-04T03:21:52.348Z,87.13
2022-09-04T03:24:57.948Z,86.37
2022-09-04T03:27:24.989Z,86.68
2022-09-04T03:30:08.399Z,85.61
2022-09-04T03:32:44.383Z,85.58
2022-09-04T03:35:39.895Z,85.50
2022-09-04T03:38:14.476Z,86.50
2022-09-04T03:41:11.111Z,87.02
2022-09-04T03:43:50.917Z,87.17
2022-09-04T03:46:17.346Z,86.89
2022-09-04T03:49:03.963Z,87.17
2022-09-04T03:51:53.563Z,87.56
2022-09-04T03:54:45.724Z,87.01
2022-09-04T03:57:24.739Z,87.28
2022-09-04T04:00:08.536Z,86.75
2022-09-04T04:02:51.356Z,87.06
2022-09-04T04:05:26.015Z,88.21
2022-09-04T04:07:59.951Z,87.45
2022-09-04T04:10:46.317Z,87.45
2022-09-04T04:13:23.117Z,87.66
2022-09-04T04:16:03.467Z,87.77
2022-09-04T04:18:48.831Z,87.10
2022-09-04T04:21:39.685Z,88.08
2022-09-04T04:24:29.912Z,87.47
2022-09-04T04:27:25.619Z,88.51
2022-09-04T04:29:55.090Z,88.63
2022-09-04T04:32:45.814Z,88.38
2022-09-04T04:35:28.549Z,88.11
2022-09-04T04:37:55.689Z,88.63
2022-09-04T04:40:53.157Z,89.10
2022-09-04T04:43:44.452Z,89.41
2022-09-04T04:46:34.745Z,88.84
2022-09-04T04:49:34.052Z,89.40
2022-09-04T04:52:18.919Z,89.76
2022-09-04T04:55:07.542Z,89.02
2022-09-04T04:57:57.929Z,89.41
2022-09-04T05:00:32.162Z,89.83
2022-09-04T05:03:08.122Z,90.04
2022-09-04T05:05:49.934Z,90.37
2022-09-04T05:08:25.913Z,89.60
2022-09-04T05:11:12.611Z,89.46
2022-09-04T05:13:48.725Z,90.43
2022-09-04T05:16:51.176Z,89.60
2022-09-04T05:19:57.658Z,89.74
2022-09-04T05:22:48.814Z,90.13
2022-09-04T05:25:40.102Z,89.64
2022-09-04T05:28:31.459Z,89.78
2022-09-04T05:31:18.251Z,89.25
2022-09-04T05:34:08.128Z,87.98
2022-09-04T05:37:09.703Z,87.49
2022-09-04T05:40:00.543Z,86.97
2022-09-04T05:43:01.102Z,84.68
2022-09-04T05:45:53.405Z,82.52
2022-09-04T05:48:27.475Z,79.62
2022-09-04T05:51:22.831Z,77.85
2022-09-04T05:54:22.127Z,77.43
2022-09-04T05:57:17.890Z,76.68
2022-09-04T06:00:04.665Z,75.93
2022-09-04T06:03:02.062Z,76.26
2022-09-04T06:06:07.567Z,75.73
2022-09-04T06:08:53.868Z,74.87
2022-09-04T06:11:51.408Z,74.29
2022-09-04T06:14:35.693Z,74.67
2022-09-04T06:17:33.032Z,74.22
2022-09-04T06:20:14.670Z,72.87
2022-09-04T06:22:53.815Z,73.73
2022-09-04T06:25:53.746Z,74.27
2022-09-04T06:28:43.730Z,72.96
2022-09-04T06:31:18.738Z,72.94
2022-09-04T06:34:00.420Z,73.50
2022-09-04T06:36:45.346Z,74.65
2022-09-04T06:39:31.671Z,73.68
2022-09-04T06:42:56.128Z,74.61
2022-09-04T06:45:44.210Z,73.92
2022-09-04T06:48:47.024Z,74.07
2022-09-04T06:51:42.791Z,74.67
2022-09-04T06:54:42.898Z,75.10
2022-09-04T06:57:46.858Z,73.45
2022-09-04T07:00:15.335Z,73.09
2022-09-04T07:03:29.846Z,73.37
2022-09-04T07:06:12.995Z,73.27
2022-09-04T07:09:05.112Z,72.44
2022-09-04T07:11:48.205Z,71.76
2022-09-04T07:14:17.210Z,71.37
2022-09-04T07:16:48.778Z,71.15
2022-09-04T07:19:40.139Z,70.72
2022-09-04T07:22:26.726Z,70.13
2022-09-04T07:24:56.932Z,69.61
2022-09-04T07:27:46.602Z,68.84
2022-09-04T07:30:14.884Z,68.62
2022-09-04T07:32:50.949Z,68.57
2022-09-04T07:35:38.275Z,68.44
2022-09-04T07:40:59.215Z,67.36
2022-09-04T07:44:17.890Z,66.37
2022-09-04T07:46:57.544Z,66.00
2022-09-04T07:49:32.103Z,65.44
2022-09-04T07:52:07.715Z,65.02
2022-09-04T07:55:08.932Z,63.83
2022-09-04T07:57:45.605Z,63.48
2022-09-04T08:00:16.676Z,62.71
2022-09-04T08:03:03.982Z,62.15
2022-09-04T08:05:37.020Z,61.46
2022-09-04T08:08:43.299Z,62.07
2022-09-04T08:11:16.203Z,61.64
2022-09-04T08:14:15.456Z,60.53
2022-09-04T08:17:03.621Z,60.94
2022-09-04T08:19:41.718Z,61.20
2022-09-04T08:22:13.355Z,61.33
2022-09-04T08:25:17.082Z,61.01
2022-09-04T08:28:09.143Z,60.07
2022-09-04T08:30:42.364Z,59.56
2022-09-04T08:33:51.155Z,59.37
2022-09-04T08:36:30.296Z,59.50
2022-09-04T08:39:07.683Z,58.63
2022-09-04T08:41:41.911Z,58.57
2022-09-04T08:44:48.554Z,58.21
2022-09-04T08:47:36.882Z,58.88
2022-09-04T08:50:40.687Z,60.38
2022-09-04T08:53:26.042Z,60.23
2022-09-04T08:56:08.542Z,60.19
2022-09-04T08:58:56.759Z,59.89
2022-09-04T09:01:35.836Z,59.71
2022-09-04T09:04:15.490Z,58.34
2022-09-04T09:07:16.348Z,59.60
2022-09-04T09:09:51.309Z,59.24
2022-09-04T09:12:55.138Z,59.38
2022-09-04T09:15:51.355Z,59.22
2022-09-04T09:18:40.670Z,59.18
2022-09-04T09:21:15.206Z,58.00
2022-09-04T09:24:08.497Z,58.63
2022-09-04T09:27:10.209Z,58.15
2022-09-04T09:29:56.835Z,57.33
2022-09-04T09:33:09.763Z,56.87
2022-09-04T09:36:14.759Z,56.69
2022-09-04T09:38:59.217Z,56.96
2022-09-04T09:41:34.880Z,56.94
2022-09-04T09:44:41.609Z,56.09
2022-09-04T09:47:33.131Z,56.31
2022-09-04T09:50:20.570Z,55.86
2022-09-04T09:52:52.707Z,55.42
2022-09-04T09:55:43.899Z,55.25
2022-09-04T09:58:48.007Z,54.14
2022-09-04T10:01:59.214Z,54.71
2022-09-04T10:04:50.762Z,55.63
2022-09-04T10:07:38.362Z,55.39
2022-09-04T10:10:26.109Z,55.14
2022-09-04T10:13:10.685Z,54.80
2022-09-04T10:15:37.626Z,53.94
2022-09-04T10:18:24.254Z,53.97
2022-09-04T10:21:28.492Z,54.22
2022-09-04T10:23:58.732Z,54.67
2022-09-04T10:26:46.635Z,54.34
2022-09-04T10:29:28.680Z,53.42
2022-09-04T10:32:16.960Z,53.14
2022-09-04T10:35:16.151Z,53.54
2022-09-04T10:38:14.568Z,53.31
2022-09-04T10:41:18.850Z,53.33
2022-09-04T10:44:01.076Z,53.14
2022-09-04T10:46:40.547Z,53.20
2022-09-04T10:49:35.031Z,53.10
2022-09-04T10:52:08.858Z,53.17
2022-09-04T10:55:11.602Z,52.61
2022-09-04T10:58:17.042Z,52.84
2022-09-04T11:01:16.083Z,53.13
2022-09-04T11:04:01.007Z,52.65
2022-09-04T11:07:04.701Z,51.54
2022-09-04T11:09:53.960Z,52.23
2022-09-04T11:12:41.867Z,51.75
2022-09-04T11:15:17.428Z,51.97
2022-09-04T11:17:54.508Z,51.73
2022-09-04T11:20:45.012Z,51.50
2022-09-04T11:23:45.190Z,51.27
2022-09-04T11:26:28.883Z,51.27
2022-09-04T11:29:20.173Z,50.15
2022-09-04T11:31:57.521Z,49.63
2022-09-04T11:35:03.871Z,49.64
2022-09-04T11:37:57.783Z,49.76
2022-09-04T11:40:42.787Z,50.27
2022-09-04T11:43:15.329Z,50.52
2022-09-04T11:46:11.485Z,50.86
2022-09-04T11:48:50.109Z,50.39
2022-09-04T11:51:41.892Z,50.17
2022-09-04T11:54:32.137Z,50.98
2022-09-04T11:57:23.331Z,50.02
2022-09-04T12:00:08.092Z,49.27
2022-09-04T12:03:12.256Z,48.60
2022-09-04T12:05:59.764Z,48.31
2022-09-04T12:08:50.796Z,47.91
2022-09-04T12:11:44.063Z,47.87
2022-09-04T12:14:36.299Z,48.62
2022-09-04T12:17:34.458Z,47.22
2022-09-04T12:20:10.131Z,47.41
2022-09-04T12:23:01.527Z,48.17
2022-09-04T12:25:50.074Z,46.78
2022-09-04T12:28:37.832Z,46.79
2022-09-04T12:31:31.600Z,45.10
2022-09-04T12:34:01.589Z,44.79
2022-09-04T12:36:52.050Z,44.81
2022-09-04T12:39:26.392Z,45.31
2022-09-04T12:42:21.494Z,45.30
2022-09-04T12:45:13.800Z,45.93
2022-09-04T12:47:43.150Z,46.38
2022-09-04T12:50:10.206Z,46.37
2022-09-04T12:53:03.041Z,47.14
2022-09-04T12:55:41.638Z,47.74
2022-09-04T12:58:33.758Z,48.09
2022-09-04T13:01:13.851Z,48.03
2022-09-04T13:03:52.613Z,46.87
2022-09-04T13:06:27.967Z,46.79
2022-09-04T13:09:20.599Z,46.56
2022-09-04T13:11:57.390Z,46.51
2022-09-04T13:14:51.810Z,46.96
2022-09-04T13:17:53.743Z,47.69
2022-09-04T13:20:34.972Z,47.16
2022-09-04T13:23:19.485Z,46.43
2022-09-04T13:26:02.073Z,46.26
2022-09-04T13:28:47.855Z,45.66
2022-09-04T13:31:15.130Z,45.78
2022-09-04T13:33:51.301Z,46.69
2022-09-04T13:36:37.373Z,47.99
2022-09-04T13:39:15.887Z,47.81
2022-09-04T13:42:01.056Z,48.29
2022-09-04T13:44:34.189Z,47.89
2022-09-04T13:47:08.963Z,47.36
2022-09-04T13:49:40.456Z,46.78
2022-09-04T13:52:27.786Z,45.79
2022-09-04T13:55:08.120Z,46.69
2022-09-04T13:57:57.504Z,46.74
2022-09-04T14:00:26.504Z,46.23
2022-09-04T14:03:00.478Z,47.01
2022-09-04T14:05:28.866Z,46.69
2022-09-04T14:08:02.801Z,46.95
2022-09-04T14:11:02.021Z,47.02
2022-09-04T14:13:44.895Z,47.57
2022-09-04T14:16:13.899Z,47.76
2022-09-04T14:19:08.831Z,47.16
2022-09-04T14:22:10.615Z,48.34
2022-09-04T14:24:56.341Z,48.73
2022-09-04T14:27:22.743Z,49.53
2022-09-04T14:30:01.036Z,50.62
2022-09-04T14:33:07.413Z,50.43
2022-09-04T14:35:36.783Z,50.38
2022-09-04T14:38:26.367Z,51.29
2022-09-04T14:41:08.459Z,51.66
2022-09-04T14:43:59.328Z,52.20
2022-09-04T14:46:31.969Z,51.67
2022-09-04T14:49:02.152Z,50.88
2022-09-04T14:51:28.883Z,51.05
2022-09-04T14:53:55.972Z,52.03
2022-09-04T14:56:28.747Z,52.55
2022-09-04T14:59:07.088Z,53.02
2022-09-04T15:01:35.836Z,52.78
2022-09-04T15:04:14.755Z,52.62
2022-09-04T15:07:09.822Z,52.70
2022-09-04T15:09:38.350Z,53.11
2022-09-04T15:12:25.697Z,53.22
2022-09-04T15:15:10.137Z,53.50
2022-09-04T15:17:39.183Z,53.59
2022-09-04T15:20:28.457Z,53.37
2022-09-04T15:23:17.576Z,53.49
2022-09-04T15:25:59.120Z,53.89
2022-09-04T15:28:38.282Z,54.67
2022-09-04T15:31:17.234Z,54.23
2022-09-04T15:33:46.235Z,54.40
2022-09-04T15:36:20.063Z,54.71
2022-09-04T15:39:00.400Z,54.94
2022-09-04T15:41:37.738Z,54.86
2022-09-04T15:44:20.928Z,54.77
2022-09-04T15:49:44.577Z,54.94
2022-09-04T15:52:31.403Z,54.31
2022-09-04T15:55:08.359Z,54.43
2022-09-04T15:57:47.263Z,54.73
2022-09-04T16:00:16.084Z,54.63
2022-09-04T16:03:08.935Z,54.36
2022-09-04T16:05:44.995Z,54.26
2022-09-04T16:08:25.725Z,54.75
2022-09-04T16:11:12.093Z,54.34
2022-09-04T16:13:50.991Z,53.88
2022-09-04T16:16:24.970Z,53.74
2022-09-04T16:19:07.315Z,54.16
2022-09-04T16:22:03.174Z,53.53
2022-09-04T16:24:44.280Z,53.61
2022-09-04T16:27:17.479Z,54.14
2022-09-04T16:29:51.149Z,53.91
2022-09-04T16:32:22.864Z,53.93
2022-09-04T16:35:19.010Z,54.01
2022-09-04T16:37:52.848Z,54.21
2022-09-04T16:40:48.791Z,54.02
2022-09-04T16:43:34.142Z,54.33
2022-09-04T16:46:25.275Z,53.94
2022-09-04T16:48:52.884Z,53.99
2022-09-04T16:51:58.778Z,54.50
2022-09-04T16:54:31.039Z,54.91
2022-09-04T16:57:13.611Z,55.33
2022-09-04T16:59:46.131Z,55.56
2022-09-04T17:02:41.772Z,55.48
2022-09-04T17:05:17.623Z,56.12
2022-09-04T17:07:50.807Z,56.38
2022-09-04T17:10:41.397Z,56.62
2022-09-04T17:13:21.981Z,56.86
2022-09-04T17:16:02.764Z,57.18
2022-09-04T17:18:30.443Z,57.02
2022-09-04T17:24:01.289Z,57.77
2022-09-04T17:28:55.487Z,57.84
2022-09-04T17:29:12.650Z,58.18
2022-09-04T17:29:47.765Z,58.32
2022-09-04T17:34:07.057Z,59.45
2022-09-04T17:40:36.393Z,59.40
2022-09-04T17:40:48.982Z,59.29
2022-09-04T17:41:48.586Z,59.51
2022-09-04T17:44:33.910Z,60.15
2022-09-04T17:47:06.938Z,60.09
2022-09-04T17:49:34.725Z,60.46
2022-09-04T17:52:07.088Z,60.48
2022-09-04T17:54:39.145Z,60.87
2022-09-04T17:57:42.585Z,61.54
2022-09-04T18:00:20.225Z,62.56
2022-09-04T18:02:54.000Z,62.11
2022-09-04T18:05:25.665Z,62.78
2022-09-04T18:08:11.705Z,63.21
2022-09-04T18:10:57.963Z,62.75
2022-09-04T18:13:37.157Z,63.14
2022-09-04T18:16:20.073Z,63.37
2022-09-04T18:18:53.009Z,63.59
2022-09-04T18:21:31.185Z,63.98
2022-09-04T18:24:03.506Z,64.30
2022-09-04T18:26:45.601Z,64.67
2022-09-04T18:32:57.627Z,64.61
2022-09-04T18:37:09.373Z,64.91
2022-09-04T18:37:15.727Z,64.69
2022-09-04T18:38:15.917Z,65.29
2022-09-04T18:44:31.896Z,65.21
2022-09-04T18:50:31.292Z,65.89
2022-09-04T18:50:38.073Z,66.49
2022-09-04T18:50:51.556Z,66.15
2022-09-04T18:52:15.862Z,66.92
2022-09-04T18:54:47.809Z,67.37
2022-09-04T18:57:33.531Z,67.29
2022-09-04T19:00:09.955Z,68.27
2022-09-04T19:03:13.458Z,68.27
2022-09-04T19:05:45.102Z,68.91
2022-09-04T19:08:22.035Z,69.12
2022-09-04T19:10:53.519Z,69.30
2022-09-04T19:13:53.529Z,69.71
2022-09-04T19:16:36.421Z,70.08
2022-09-04T19:19:17.451Z,69.89
2022-09-04T19:21:57.766Z,70.10
2022-09-04T19:24:39.106Z,69.79
2022-09-04T19:27:25.072Z,69.93
2022-09-04T19:30:03.576Z,70.07
2022-09-04T19:33:11.647Z,70.49
2022-09-04T19:35:41.082Z,70.50
2022-09-04T19:44:05.319Z,70.99
2022-09-04T19:46:00.850Z,71.01
2022-09-04T19:46:12.709Z,71.57
2022-09-04T19:47:27.335Z,71.22
2022-09-04T19:53:03.464Z,71.52
2022-09-04T19:53:31.647Z,71.32
2022-09-04T19:55:49.934Z,71.21
2022-09-04T19:58:51.613Z,71.57
2022-09-04T20:01:24.836Z,71.89
2022-09-04T20:04:01.747Z,71.59
2022-09-04T20:06:50.747Z,72.37
2022-09-04T20:09:33.522Z,72.09
2022-09-04T20:12:10.881Z,72.51
2022-09-04T20:14:46.121Z,72.63
2022-09-04T20:17:31.456Z,73.12
2022-09-04T20:20:01.469Z,72.93
2022-09-04T20:22:37.292Z,73.14
2022-09-04T20:25:24.481Z,73.15
2022-09-04T20:27:55.374Z,73.56
2022-09-04T20:30:24.711Z,73.60
2022-09-04T20:33:06.538Z,73.86
2022-09-04T20:35:42.501Z,74.04
2022-09-04T20:38:23.445Z,74.14
2022-09-04T20:40:55.064Z,74.53
2022-09-04T20:43:31.637Z,74.66
2022-09-04T20:51:06.322Z,74.55
2022-09-04T20:52:57.020Z,75.27
2022-09-04T20:52:59.685Z,74.85
2022-09-04T20:55:01.331Z,75.49
2022-09-04T21:03:12.415Z,75.55
2022-09-04T21:03:17.780Z,75.94
2022-09-04T21:03:44.925Z,75.88
2022-09-04T21:06:32.320Z,75.85
2022-09-04T21:09:30.515Z,75.95
2022-09-04T21:12:29.715Z,76.20
2022-09-04T21:15:04.297Z,76.80
2022-09-04T21:17:59.192Z,77.10
2022-09-04T21:20:29.778Z,77.40
2022-09-04T21:23:35.258Z,77.44
2022-09-04T21:26:27.827Z,77.70
2022-09-04T21:29:17.533Z,78.33
2022-09-04T21:31:55.380Z,78.63
2022-09-04T21:34:47.558Z,78.68
2022-09-04T21:37:39.890Z,78.69
2022-09-04T21:40:49.654Z,78.77
2022-09-04T21:43:24.836Z,79.29
2022-09-04T21:46:43.763Z,79.66
2022-09-04T21:49:41.427Z,79.50
2022-09-04T21:52:56.235Z,79.92
2022-09-04T22:02:07.962Z,80.50
2022-09-04T22:02:36.872Z,80.80
2022-09-04T22:02:38.112Z,80.94
2022-09-04T22:05:22.693Z,80.80
2022-09-04T22:13:29.532Z,80.76
2022-09-04T22:13:43.727Z,80.97
2022-09-04T22:13:50.440Z,81.14
2022-09-04T22:16:42.147Z,80.87
2022-09-04T22:19:36.385Z,81.50
2022-09-04T22:22:24.047Z,82.10
2022-09-04T22:25:30.287Z,82.13
2022-09-04T22:28:15.735Z,82.01
2022-09-04T22:31:24.832Z,82.60
2022-09-04T22:34:18.810Z,82.39
2022-09-04T22:37:30.443Z,82.47
2022-09-04T22:40:06.068Z,83.15
2022-09-04T22:42:51.661Z,83.16
2022-09-04T22:45:25.590Z,83.36
2022-09-04T22:48:25.121Z,83.67
2022-09-04T22:51:16.437Z,83.50
2022-09-04T22:53:58.018Z,83.40
2022-09-04T22:56:43.463Z,83.71
2022-09-04T22:59:38.987Z,84.26
2022-09-04T23:02:54.094Z,84.22
2022-09-04T23:05:41.606Z,84.39
2022-09-04T23:13:36.047Z,83.66
2022-09-04T23:13:46.232Z,83.55
2022-09-04T23:14:44.523Z,83.57
2022-09-04T23:17:18.861Z,83.28
2022-09-04T23:25:59.883Z,83.35
2022-09-04T23:26:43.219Z,83.09
2022-09-04T23:26:43.939Z,82.46
2022-09-04T23:29:41.128Z,82.85
2022-09-04T23:32:24.947Z,82.88
2022-09-04T23:35:16.161Z,83.49
2022-09-04T23:38:07.111Z,83.67
2022-09-04T23:40:44.203Z,83.79
2022-09-04T23:43:19.375Z,84.04
2022-09-04T23:46:00.876Z,83.42
2022-09-04T23:48:40.705Z,83.81
2022-09-04T23:51:45.930Z,84.15
2022-09-04T23:54:49.926Z,83.97
2022-09-04T23:57:26.888Z,84.12
